METAR、SPECI、TAF(飛行場実況・予報)


■ METAR、SPECI(飛行場実況)

SCAN  RJTH 110100Z 22020KT 9999 FEW004 SCT010 BKN020 28/28 Q1006 RMK A2971
SCAN RJTH 110200Z 22019KT 9000 FEW006 BKN015 27/27 Q1006 RMK A2972
SCAN RJTH 110300Z 23018KT 9000 FEW007 BKN030 28/28 Q1006 RMK A2971
SCAN RJTH 110400Z 23019KT 9999 FEW010 SCT015 BKN050 28/27 Q1005 RMK A2970
SCAN RJTH 110500Z 22016KT 9999 FEW010 SCT015 BKN050 28/27 Q1005 RMK A2968
SCAN RJTH 110600Z 22018KT 9999 FEW007 SCT015 BKN050 28/27 Q1004 RMK A2966
SCAN RJTH 110700Z 22018KT 9999 FEW010 SCT020 BKNXXX 28/27 Q1004 RMK A2967
SCAN RJTH 110800Z 21016KT 9000 FEW010 BKN022 27/27 Q1004 RMK A2967
SCAN RJTH 112130Z 23009KT 9999 FEW010 SCT050 BKNXXX 25/25 Q1005 RMK A2970
SCAN RJTH 112200Z 24009KT 9999 RA FEW010 SCT040 BKNXXX 25/25 Q1006 RMK A2971
SCAN RJTH 112300Z 23012KT 9000 RA FEW003 SCT020 BKN040 24/24 Q1006 RMK A2971
SCAN RJTH 120000Z 24008KT 3000 RA SCT003 BKN015 24/24 Q1005 RMK A2969
SCAN RJTH 120100Z 20022KT 9999 FEW008 BKN020 27/27 Q1004 RMK A2967
SCAN RJTH 120200Z 21017KT 9999 FEW010 BKN018 27/27 Q1004 RMK A2967
SCAN RJTH 120300Z 22018KT 9999 FEW010 SCT015 BKN030 27/27 Q1004 RMK A2966
SCAN RJTH 120400Z 21017KT 5000 RA SCT008 BKN016 27/27 Q1004 RMK A2966
SCAN RJTH 120500Z 21019KT 7000 FEW009 BKN015 27/27 Q1004 RMK A2966
SCAN RJTH 120600Z 21018KT 8000 FEW008 BKN020 27/27 Q1004 RMK A2966
SCAN RJTH 120700Z 21019G29KT 9999 FEW007 SCT015 BKN050 27/27 Q1004 RMK A2965
SCAN RJTH 120800Z 21020G30KT 9999 FEW010 SCT015 BKN050 27/27 Q1004 RMK A2965
SCAN RJTH 122130Z 25010KT 9999 FEW014 BKNXXX 26/25 Q1009 RMK A2980
SCAN RJTH 122200Z 24009KT 9999 FEW014 BKNXXX 26/25 Q1009 RMK A2981
SCAN RJTH 122300Z 24008KT 9999 FEW014 BKNXXX 27/26 Q1009 RMK A2981
SCAN RJTH 130000Z 23006KT 9999 FEW020 BKN030 28/26 Q1010 RMK A2982
SCAN RJTH 130100Z 20006KT 9999 FEW025 BKN032 29/26 Q1010 RMK A2983
SCAN RJTH 130200Z 19003KT 9999 FEW023 FEW041 29/24 Q1010 RMK A2983
SCAN RJTH 130300Z 26002KT 9999 FEW020 FEWXXX 30/23 Q1010 RMK A2984
SCAN RJTH 130400Z 25003KT 9999 FEW022 SCT038 30/24 Q1011 RMK A2986
SCAN RJTH 130500Z 21005KT 9999 FEW022 BKN045 29/23 Q1011 RMK A2986
SCAN RJTH 130600Z 23008KT 9999 FEW015 SCT030 BKNXXX 28/25 Q1011 RMK A2987
SCAN RJTH 130700Z 24006KT 9000 RA FEW015 SCT030 BKN050 26/26 Q1011 RMK A2988
SCAN RJTH 130800Z 24008KT 9999 FEW010 SCT030 BKNXXX 26/26 Q1012 RMK A2989
SCAN RJTH 132130Z 22012KT 9999 FEW009 28/28 Q1015 RMK A2997
SCAN RJTH 132200Z 22012KT 9999 FEW009 28/27 Q1015 RMK A2998
SCAN RJTH 132300Z 22012KT 9999 FEW010 28/27 Q1015 RMK A2999
SCAN RJTH 140000Z 22012KT 9999 FEW008 SCTXXX 29/27 Q1015 RMK A2999
SCAN RJTH 140100Z 21012KT 9999 FEW007 SCTXXX 30/28 Q1016 RMK A3000
SCAN RJTH 140200Z 23013KT 9999 FEW006 SCT015 30/28 Q1016 RMK A3001
SCAN RJTH 140300Z 22013KT 9999 FEW008 SCT012 30/27 Q1016 RMK A3000
SCAN RJTH 140400Z 22011KT 9999 FEW008 SCTXXX 30/28 Q1015 RMK A3000
SCAN RJTH 140500Z 21013KT 9999 FEW008 SCTXXX 29/28 Q1015 RMK A3000
SCAN RJTH 140600Z 22013KT 9999 FEW010 SCTXXX 29/28 Q1015 RMK A2999
SCAN RJTH 140700Z 22012KT 9999 FEW008 SCT012 30/28 Q1015 RMK A2998

■ TAF(飛行場予報)


				

お知らせ

新着情報

  • 太陽光発電量推算
  • 気象予報士試験過去問・講座
  • Yahoo Weather shop
  • メルカリ Weather shop
  • BASE Weather shop

ご案内